createdAt,value
2022-10-05T00:00:35.151Z,13.16
2022-10-05T00:01:35.111Z,13.11
2022-10-05T00:02:35.041Z,13.15
2022-10-05T00:03:35.030Z,13.08
2022-10-05T00:04:35.020Z,13.11
2022-10-05T00:05:35.043Z,13.06
2022-10-05T00:06:35.012Z,13.01
2022-10-05T00:07:35.015Z,13.06
2022-10-05T00:08:34.973Z,13.05
2022-10-05T00:09:34.962Z,13.03
2022-10-05T00:10:35.028Z,13.03
2022-10-05T00:11:34.949Z,13.01
2022-10-05T00:12:34.922Z,13.05
2022-10-05T00:13:34.918Z,13.00
2022-10-05T00:14:34.904Z,12.98
2022-10-05T00:15:34.892Z,12.97
2022-10-05T00:16:34.991Z,13.00
2022-10-05T00:17:34.887Z,13.05
2022-10-05T00:18:34.937Z,13.01
2022-10-05T00:19:34.850Z,13.03
2022-10-05T00:20:34.832Z,13.03
2022-10-05T00:21:34.865Z,13.08
2022-10-05T00:22:34.871Z,13.05
2022-10-05T00:23:34.804Z,13.06
2022-10-05T00:24:34.795Z,13.01
2022-10-05T00:25:34.774Z,13.05
2022-10-05T00:26:34.857Z,13.05
2022-10-05T00:27:34.863Z,12.97
2022-10-05T00:28:34.866Z,13.00
2022-10-05T00:29:34.737Z,12.97
2022-10-05T00:30:34.714Z,12.97
2022-10-05T00:31:34.820Z,12.97
2022-10-05T00:32:34.762Z,12.88
2022-10-05T00:33:34.686Z,12.91
2022-10-05T00:34:34.669Z,12.93
2022-10-05T00:35:34.663Z,12.90
2022-10-05T00:36:34.658Z,12.90
2022-10-05T00:37:34.646Z,12.93
2022-10-05T00:38:34.677Z,12.90
2022-10-05T00:39:34.619Z,12.88
2022-10-05T00:40:34.635Z,12.85
2022-10-05T00:41:34.708Z,12.83
2022-10-05T00:42:34.605Z,12.90
2022-10-05T00:43:34.584Z,12.85
2022-10-05T00:44:34.566Z,12.88
2022-10-05T00:45:34.624Z,12.83
2022-10-05T00:46:34.565Z,12.79
2022-10-05T00:47:34.543Z,12.78
2022-10-05T00:48:34.518Z,12.80
2022-10-05T00:49:34.511Z,12.78
2022-10-05T00:50:34.489Z,12.76
2022-10-05T00:51:34.506Z,12.79
2022-10-05T00:52:34.473Z,12.79
2022-10-05T00:53:34.498Z,12.75
2022-10-05T00:54:34.453Z,12.75
2022-10-05T00:55:34.431Z,12.78
2022-10-05T00:56:34.434Z,12.78
2022-10-05T00:57:34.414Z,12.83
2022-10-05T00:58:34.444Z,12.82
2022-10-05T00:59:34.467Z,12.78
2022-10-05T01:00:34.396Z,12.79
2022-10-05T01:01:34.486Z,12.78
2022-10-05T01:02:36.947Z,12.79
2022-10-05T01:03:34.364Z,12.78
2022-10-05T01:04:34.328Z,12.75
2022-10-05T01:05:34.401Z,12.76
2022-10-05T01:06:34.332Z,12.73
2022-10-05T01:07:34.294Z,12.71
2022-10-05T01:08:34.286Z,12.78
2022-10-05T01:09:34.272Z,12.73
2022-10-05T01:10:34.263Z,12.79
2022-10-05T01:11:34.293Z,12.75
2022-10-05T01:12:34.263Z,12.78
2022-10-05T01:13:34.326Z,12.78
2022-10-05T01:14:34.258Z,12.80
2022-10-05T01:15:34.331Z,12.79
2022-10-05T01:16:34.294Z,12.79
2022-10-05T01:17:34.192Z,12.78
2022-10-05T01:18:34.225Z,12.75
2022-10-05T01:19:34.239Z,12.76
2022-10-05T01:20:34.147Z,12.76
2022-10-05T01:21:34.174Z,12.78
2022-10-05T01:22:34.166Z,12.73
2022-10-05T01:23:34.207Z,12.79
2022-10-05T01:24:34.111Z,12.73
2022-10-05T01:25:34.097Z,12.75
2022-10-05T01:26:34.103Z,12.78
2022-10-05T01:27:34.189Z,12.82
2022-10-05T01:28:34.117Z,12.76
2022-10-05T01:29:34.149Z,12.78
2022-10-05T01:30:34.059Z,12.79
2022-10-05T01:31:34.129Z,12.80
2022-10-05T01:32:34.121Z,12.78
2022-10-05T01:33:34.013Z,12.80
2022-10-05T01:34:33.999Z,12.82
2022-10-05T01:35:33.996Z,12.82
2022-10-05T01:36:33.991Z,12.78
2022-10-05T01:37:34.030Z,12.87
2022-10-05T01:38:33.978Z,12.88
2022-10-05T01:39:33.947Z,12.82
2022-10-05T01:40:33.928Z,12.87
2022-10-05T01:41:33.938Z,12.75
2022-10-05T01:42:33.917Z,12.76
2022-10-05T01:43:33.965Z,12.76
2022-10-05T01:44:33.889Z,12.73
2022-10-05T01:45:33.898Z,12.76
2022-10-05T01:46:33.909Z,12.80
2022-10-05T01:47:33.854Z,12.80
2022-10-05T01:48:33.838Z,12.78
2022-10-05T01:49:33.838Z,12.76
2022-10-05T01:50:33.825Z,12.76
2022-10-05T01:51:33.851Z,12.79
2022-10-05T01:52:33.802Z,12.76
2022-10-05T01:53:33.794Z,12.75
2022-10-05T01:54:33.781Z,12.75
2022-10-05T01:55:33.788Z,12.72
2022-10-05T01:56:33.774Z,12.71
2022-10-05T01:57:33.757Z,12.82
2022-10-05T01:58:33.768Z,12.76
2022-10-05T01:59:33.806Z,12.72
2022-10-05T02:00:33.710Z,12.71
2022-10-05T02:01:33.817Z,12.73
2022-10-05T02:02:33.778Z,12.72
2022-10-05T02:03:33.708Z,12.61
2022-10-05T02:05:01.987Z,12.75
2022-10-05T02:05:34.660Z,12.64
2022-10-05T02:06:33.661Z,12.63
2022-10-05T02:07:33.662Z,12.68
2022-10-05T02:08:33.633Z,12.72
2022-10-05T02:09:33.612Z,12.63
2022-10-05T02:10:33.665Z,12.58
2022-10-05T02:11:33.621Z,12.58
2022-10-05T02:12:33.603Z,12.58
2022-10-05T02:13:33.583Z,12.64
2022-10-05T02:14:33.611Z,12.65
2022-10-05T02:15:33.639Z,12.54
2022-10-05T02:16:33.662Z,12.65
2022-10-05T02:17:33.518Z,12.53
2022-10-05T02:18:33.539Z,12.55
2022-10-05T02:19:33.517Z,12.60
2022-10-05T02:20:33.495Z,12.60
2022-10-05T02:21:33.506Z,12.46
2022-10-05T02:22:33.470Z,12.42
2022-10-05T02:23:33.465Z,12.47
2022-10-05T02:24:33.457Z,12.54
2022-10-05T02:25:33.439Z,12.50
2022-10-05T02:26:33.461Z,12.46
2022-10-05T02:27:33.543Z,12.50
2022-10-05T02:28:33.525Z,12.51
2022-10-05T02:29:33.394Z,12.46
2022-10-05T02:30:33.438Z,12.53
2022-10-05T02:31:33.569Z,12.46
2022-10-05T02:32:33.361Z,12.55
2022-10-05T02:33:33.351Z,12.53
2022-10-05T02:34:33.358Z,12.55
2022-10-05T02:35:33.338Z,12.43
2022-10-05T02:36:33.335Z,12.55
2022-10-05T02:37:33.323Z,12.53
2022-10-05T02:38:33.318Z,12.51
2022-10-05T02:39:33.282Z,12.47
2022-10-05T02:40:33.318Z,12.51
2022-10-05T02:41:33.287Z,12.46
2022-10-05T02:42:33.250Z,12.50
2022-10-05T02:43:33.245Z,12.47
2022-10-05T02:44:33.228Z,12.51
2022-10-05T02:45:33.240Z,12.51
2022-10-05T02:46:33.246Z,12.50
2022-10-05T02:47:33.195Z,12.46
2022-10-05T02:48:33.259Z,12.51
2022-10-05T02:49:33.251Z,12.51
2022-10-05T02:50:33.222Z,12.46
2022-10-05T02:51:33.354Z,12.46
2022-10-05T02:52:33.148Z,12.53
2022-10-05T02:53:33.225Z,12.47
2022-10-05T02:54:33.149Z,12.46
2022-10-05T02:55:33.111Z,12.50
2022-10-05T02:56:33.158Z,12.43
2022-10-05T02:57:33.083Z,12.46
2022-10-05T02:58:33.078Z,12.43
2022-10-05T02:59:33.062Z,12.50
2022-10-05T03:00:33.063Z,12.43
2022-10-05T03:01:33.127Z,12.45
2022-10-05T03:02:33.056Z,12.45
2022-10-05T03:03:33.018Z,12.47
2022-10-05T03:04:33.006Z,12.43
2022-10-05T03:05:33.068Z,12.46
2022-10-05T03:06:33.036Z,12.51
2022-10-05T03:07:32.984Z,12.46
2022-10-05T03:08:32.967Z,12.46
2022-10-05T03:09:33.031Z,12.46
2022-10-05T03:10:32.962Z,12.43
2022-10-05T03:11:32.934Z,12.47
2022-10-05T03:12:32.935Z,12.51
2022-10-05T03:13:32.905Z,12.47
2022-10-05T03:14:32.897Z,12.46
2022-10-05T03:15:32.903Z,12.45
2022-10-05T03:16:32.934Z,12.46
2022-10-05T03:17:32.878Z,12.46
2022-10-05T03:18:32.859Z,12.50
2022-10-05T03:19:32.837Z,12.47
2022-10-05T03:20:32.874Z,12.47
2022-10-05T03:21:32.817Z,12.47
2022-10-05T03:22:32.850Z,12.47
2022-10-05T03:23:32.796Z,12.55
2022-10-05T03:24:32.793Z,12.51
2022-10-05T03:25:32.791Z,12.55
2022-10-05T03:26:32.803Z,12.51
2022-10-05T03:27:32.780Z,12.57
2022-10-05T03:28:32.851Z,12.50
2022-10-05T03:29:32.741Z,12.50
2022-10-05T03:30:32.740Z,12.54
2022-10-05T03:31:32.782Z,12.51
2022-10-05T03:32:32.714Z,12.50
2022-10-05T03:33:32.681Z,12.47
2022-10-05T03:34:32.683Z,12.50
2022-10-05T03:35:32.694Z,12.55
2022-10-05T03:36:32.665Z,12.43
2022-10-05T03:37:32.643Z,12.42
2022-10-05T03:38:32.657Z,12.47
2022-10-05T03:39:32.616Z,12.45
2022-10-05T03:40:32.618Z,12.45
2022-10-05T03:41:32.627Z,12.50
2022-10-05T03:42:32.594Z,12.46
2022-10-05T03:43:32.583Z,12.43
2022-10-05T03:44:32.572Z,12.45
2022-10-05T03:45:32.585Z,12.47
2022-10-05T03:46:32.656Z,12.46
2022-10-05T03:47:32.528Z,12.30
2022-10-05T03:48:32.533Z,12.39
2022-10-05T03:49:32.522Z,12.39
2022-10-05T03:50:32.505Z,12.36
2022-10-05T03:51:32.492Z,12.36
2022-10-05T03:52:32.502Z,12.40
2022-10-05T03:53:32.482Z,12.38
2022-10-05T03:54:32.499Z,12.35
2022-10-05T03:55:32.447Z,12.42
2022-10-05T03:56:32.434Z,12.39
2022-10-05T03:57:32.443Z,12.40
2022-10-05T03:58:32.429Z,12.38
2022-10-05T03:59:32.953Z,12.42
2022-10-05T04:00:32.393Z,12.38
2022-10-05T04:01:32.489Z,12.39
2022-10-05T04:02:32.452Z,12.32
2022-10-05T04:03:32.364Z,12.35
2022-10-05T04:04:32.344Z,12.39
2022-10-05T04:05:32.365Z,12.43
2022-10-05T04:06:32.319Z,12.36
2022-10-05T04:07:32.330Z,12.40
2022-10-05T04:08:32.306Z,12.42
2022-10-05T04:09:32.287Z,12.40
2022-10-05T04:10:32.298Z,12.32
2022-10-05T04:11:32.329Z,12.36
2022-10-05T04:12:32.276Z,12.38
2022-10-05T04:13:32.253Z,12.36
2022-10-05T04:14:32.238Z,12.36
2022-10-05T04:15:32.274Z,12.38
2022-10-05T04:16:32.212Z,12.36
2022-10-05T04:17:32.212Z,12.30
2022-10-05T04:18:32.187Z,12.33
2022-10-05T04:19:32.187Z,12.32
2022-10-05T04:20:32.245Z,12.32
2022-10-05T04:21:32.184Z,12.32
2022-10-05T04:22:32.179Z,12.32
2022-10-05T04:23:32.153Z,12.33
2022-10-05T04:24:32.125Z,12.28
2022-10-05T04:25:32.116Z,12.30
2022-10-05T04:26:32.127Z,12.28
2022-10-05T04:27:32.180Z,12.30
2022-10-05T04:28:32.574Z,12.24
2022-10-05T04:29:32.091Z,12.32
2022-10-05T04:30:32.068Z,12.27
2022-10-05T04:31:32.170Z,12.25
2022-10-05T04:32:32.084Z,12.25
2022-10-05T04:33:32.027Z,12.27
2022-10-05T04:34:32.115Z,12.28
2022-10-05T04:35:32.014Z,12.25
2022-10-05T04:36:31.993Z,12.20
2022-10-05T04:37:31.997Z,12.18
2022-10-05T04:38:32.013Z,12.20
2022-10-05T04:39:31.956Z,12.21
2022-10-05T04:40:31.950Z,12.15
2022-10-05T04:41:31.943Z,12.17
2022-10-05T04:42:32.055Z,12.21
2022-10-05T04:43:31.950Z,12.25
2022-10-05T04:44:31.906Z,12.18
2022-10-05T04:45:31.922Z,12.17
2022-10-05T04:46:31.965Z,12.25
2022-10-05T04:47:31.867Z,12.20
2022-10-05T04:48:31.914Z,12.22
2022-10-05T04:49:31.846Z,12.21
2022-10-05T04:50:31.839Z,12.18
2022-10-05T04:51:31.825Z,12.20
2022-10-05T04:52:31.829Z,12.18
2022-10-05T04:53:31.863Z,12.17
2022-10-05T04:54:31.811Z,12.21
2022-10-05T04:55:31.838Z,12.20
2022-10-05T04:56:31.773Z,12.24
2022-10-05T04:57:31.788Z,12.22
2022-10-05T04:58:31.779Z,12.22
2022-10-05T04:59:31.737Z,12.18
2022-10-05T05:00:31.776Z,12.14
2022-10-05T05:01:31.739Z,12.22
2022-10-05T05:02:31.718Z,12.22
2022-10-05T05:03:31.743Z,12.20
2022-10-05T05:04:31.688Z,12.17
2022-10-05T05:05:31.742Z,12.15
2022-10-05T05:06:31.664Z,12.22
2022-10-05T05:07:31.659Z,12.25
2022-10-05T05:08:31.652Z,12.17
2022-10-05T05:09:31.663Z,12.22
2022-10-05T05:10:31.637Z,12.22
2022-10-05T05:11:31.627Z,12.20
2022-10-05T05:12:31.626Z,12.21
2022-10-05T05:13:31.585Z,12.18
2022-10-05T05:14:31.605Z,12.17
2022-10-05T05:15:31.564Z,12.25
2022-10-05T05:16:31.625Z,12.15
2022-10-05T05:17:31.564Z,12.17
2022-10-05T05:18:31.567Z,12.21
2022-10-05T05:19:31.526Z,12.15
2022-10-05T05:20:31.509Z,12.25
2022-10-05T05:21:31.549Z,12.17
2022-10-05T05:22:31.531Z,12.25
2022-10-05T05:23:31.509Z,12.22
2022-10-05T05:24:31.461Z,12.28
2022-10-05T05:25:31.450Z,12.25
2022-10-05T05:26:32.766Z,12.18
2022-10-05T05:27:31.461Z,12.25
2022-10-05T05:28:31.520Z,12.20
2022-10-05T05:29:31.408Z,12.24
2022-10-05T05:30:31.419Z,12.22
2022-10-05T05:31:31.485Z,12.25
2022-10-05T05:32:31.400Z,12.27
2022-10-05T05:33:31.368Z,12.27
2022-10-05T05:34:31.360Z,12.21
2022-10-05T05:35:31.340Z,12.25
2022-10-05T05:36:31.332Z,12.17
2022-10-05T05:37:31.341Z,12.22
2022-10-05T05:38:31.310Z,12.28
2022-10-05T05:39:31.310Z,12.24
2022-10-05T05:40:31.307Z,12.28
2022-10-05T05:41:31.282Z,12.30
2022-10-05T05:42:31.289Z,12.21
2022-10-05T05:43:31.288Z,12.21
2022-10-05T05:44:35.286Z,12.30
2022-10-05T05:45:32.230Z,12.30
2022-10-05T05:46:58.298Z,12.22
2022-10-05T05:47:32.354Z,12.24
2022-10-05T05:48:31.220Z,12.25
2022-10-05T05:49:31.196Z,12.21
2022-10-05T05:50:31.180Z,12.30
2022-10-05T05:51:31.189Z,12.25
2022-10-05T05:52:31.191Z,12.22
2022-10-05T05:53:31.151Z,12.21
2022-10-05T05:54:31.142Z,12.27
2022-10-05T05:55:31.158Z,12.24
2022-10-05T05:56:31.120Z,12.27
2022-10-05T05:57:31.127Z,12.28
2022-10-05T05:58:31.105Z,12.25
2022-10-05T05:59:31.085Z,12.30
2022-10-05T06:00:31.178Z,12.28
2022-10-05T06:01:33.600Z,12.32
2022-10-05T06:02:31.259Z,12.33
2022-10-05T06:03:31.045Z,12.30
2022-10-05T06:04:31.021Z,12.36
2022-10-05T06:05:31.020Z,12.28
2022-10-05T06:06:30.999Z,12.40
2022-10-05T06:07:31.038Z,12.25
2022-10-05T06:08:30.995Z,12.32
2022-10-05T06:09:30.969Z,12.35
2022-10-05T06:10:30.960Z,12.38
2022-10-05T06:11:30.955Z,12.38
2022-10-05T06:12:30.966Z,12.33
2022-10-05T06:13:30.926Z,12.35
2022-10-05T06:14:30.944Z,12.30
2022-10-05T06:15:30.903Z,12.36
2022-10-05T06:16:31.029Z,12.38
2022-10-05T06:17:30.878Z,12.38
2022-10-05T06:18:30.887Z,12.36
2022-10-05T06:19:30.858Z,12.35
2022-10-05T06:20:30.863Z,12.35
2022-10-05T06:21:30.890Z,12.43
2022-10-05T06:22:30.825Z,12.40
2022-10-05T06:23:30.821Z,12.39
2022-10-05T06:24:30.825Z,12.38
2022-10-05T06:25:30.796Z,12.30
2022-10-05T06:26:30.806Z,12.32
2022-10-05T06:27:30.768Z,12.40
2022-10-05T06:28:30.846Z,12.45
2022-10-05T06:29:30.766Z,12.47
2022-10-05T06:30:30.756Z,12.43
2022-10-05T06:31:30.767Z,12.43
2022-10-05T06:32:30.734Z,12.46
2022-10-05T06:33:30.708Z,12.51
2022-10-05T06:34:30.714Z,12.53
2022-10-05T06:35:30.691Z,12.46
2022-10-05T06:36:30.720Z,12.43
2022-10-05T06:37:30.706Z,12.58
2022-10-05T06:38:30.656Z,12.50
2022-10-05T06:39:30.646Z,12.51
2022-10-05T06:40:30.668Z,12.51
2022-10-05T06:41:30.667Z,12.45
2022-10-05T06:42:30.630Z,12.60
2022-10-05T06:43:30.600Z,12.53
2022-10-05T06:44:30.597Z,12.54
2022-10-05T06:45:30.630Z,12.58
2022-10-05T06:46:30.568Z,12.55
2022-10-05T06:47:30.559Z,12.64
2022-10-05T06:48:30.539Z,12.57
2022-10-05T06:49:30.523Z,12.60
2022-10-05T06:50:30.600Z,12.68
2022-10-05T06:51:30.504Z,12.73
2022-10-05T06:52:30.500Z,12.63
2022-10-05T06:53:30.478Z,12.69
2022-10-05T06:54:30.478Z,12.76
2022-10-05T06:55:30.457Z,12.76
2022-10-05T06:56:30.450Z,12.80
2022-10-05T06:57:30.444Z,12.78
2022-10-05T06:58:30.421Z,12.83
2022-10-05T06:59:30.444Z,12.78
2022-10-05T07:00:30.420Z,12.75
2022-10-05T07:01:30.471Z,12.85
2022-10-05T07:02:30.454Z,12.82
2022-10-05T07:03:30.371Z,12.90
2022-10-05T07:04:34.593Z,12.83
2022-10-05T07:05:31.358Z,12.87
2022-10-05T07:06:30.368Z,12.90
2022-10-05T07:07:30.322Z,12.88
2022-10-05T07:08:30.320Z,12.98
2022-10-05T07:09:30.307Z,13.03
2022-10-05T07:10:30.296Z,12.96
2022-10-05T07:11:30.291Z,13.00
2022-10-05T07:12:30.298Z,13.01
2022-10-05T07:13:30.258Z,13.05
2022-10-05T07:14:30.251Z,13.06
2022-10-05T07:15:30.242Z,13.03
2022-10-05T07:16:30.329Z,13.06
2022-10-05T07:17:30.236Z,13.09
2022-10-05T07:18:30.209Z,13.09
2022-10-05T07:19:30.197Z,13.13
2022-10-05T07:20:30.202Z,13.03
2022-10-05T07:21:30.180Z,13.05
2022-10-05T07:22:33.300Z,13.16
2022-10-05T07:23:30.151Z,13.11
2022-10-05T07:24:30.153Z,13.15
2022-10-05T07:25:30.130Z,13.08
2022-10-05T07:26:30.144Z,13.11
2022-10-05T07:27:30.130Z,13.13
2022-10-05T07:28:30.242Z,13.15
2022-10-05T07:29:30.089Z,13.24
2022-10-05T07:30:30.142Z,13.15
2022-10-05T07:31:30.055Z,13.26
2022-10-05T07:32:30.076Z,13.26
2022-10-05T07:33:30.034Z,13.19
2022-10-05T07:34:30.029Z,13.27
2022-10-05T07:35:30.014Z,13.29
2022-10-05T07:36:30.013Z,13.24
2022-10-05T07:37:30.006Z,13.33
2022-10-05T07:38:30.004Z,13.39
2022-10-05T07:39:55.328Z,13.47
2022-10-05T07:40:30.964Z,13.45
2022-10-05T07:41:29.949Z,13.50
2022-10-05T07:42:29.955Z,13.50
2022-10-05T07:43:45.343Z,13.55
2022-10-05T07:44:30.916Z,13.53
2022-10-05T07:45:29.991Z,13.57
2022-10-05T07:46:29.906Z,13.60
2022-10-05T07:47:29.890Z,13.75
2022-10-05T07:48:29.869Z,13.67
2022-10-05T07:49:29.863Z,13.71
2022-10-05T07:50:29.845Z,13.77
2022-10-05T07:51:29.848Z,13.80
2022-10-05T07:52:33.785Z,13.74
2022-10-05T07:53:30.823Z,13.77
2022-10-05T07:54:29.828Z,13.85
2022-10-05T07:55:29.789Z,13.90
2022-10-05T07:56:29.779Z,13.89
2022-10-05T07:57:29.785Z,13.95
2022-10-05T07:58:29.762Z,13.89
2022-10-05T07:59:29.768Z,13.90
2022-10-05T08:00:29.735Z,13.95
2022-10-05T08:01:29.869Z,14.04
2022-10-05T08:02:29.903Z,14.05
2022-10-05T08:03:29.691Z,14.08
2022-10-05T08:04:29.683Z,14.15
2022-10-05T08:05:29.674Z,14.11
2022-10-05T08:06:29.665Z,14.13
2022-10-05T08:07:29.676Z,14.18
2022-10-05T08:08:29.645Z,14.23
2022-10-05T08:09:29.636Z,14.20
2022-10-05T08:10:29.643Z,14.28
2022-10-05T08:11:29.632Z,14.29
2022-10-05T08:12:29.595Z,14.29
2022-10-05T08:13:29.580Z,14.30
2022-10-05T08:14:29.576Z,14.22
2022-10-05T08:15:29.554Z,14.33
2022-10-05T08:16:29.599Z,14.30
2022-10-05T08:17:29.560Z,14.36
2022-10-05T08:18:29.522Z,14.45
2022-10-05T08:19:29.514Z,14.44
2022-10-05T08:20:29.499Z,14.41
2022-10-05T08:21:29.488Z,14.45
2022-10-05T08:22:29.503Z,14.44
2022-10-05T08:23:29.471Z,14.47
2022-10-05T08:24:29.465Z,14.53
2022-10-05T08:25:29.447Z,14.47
2022-10-05T08:26:29.458Z,14.44
2022-10-05T08:27:29.440Z,14.62
2022-10-05T08:28:29.472Z,14.59
2022-10-05T08:29:29.410Z,14.56
2022-10-05T08:30:29.402Z,14.70
2022-10-05T08:31:29.408Z,14.66
2022-10-05T08:32:29.393Z,14.78
2022-10-05T08:33:29.355Z,14.66
2022-10-05T08:34:29.341Z,14.77
2022-10-05T08:35:29.334Z,14.79
2022-10-05T08:36:29.340Z,14.77
2022-10-05T08:37:29.309Z,14.68
2022-10-05T08:38:29.298Z,14.84
2022-10-05T08:39:29.283Z,14.89
2022-10-05T08:40:29.278Z,14.88
2022-10-05T08:41:29.291Z,14.85
2022-10-05T08:42:29.296Z,14.84
2022-10-05T08:43:33.028Z,14.93
2022-10-05T08:44:30.235Z,14.93
2022-10-05T08:45:29.216Z,14.88
2022-10-05T08:46:29.276Z,15.00
2022-10-05T08:47:29.188Z,15.03
2022-10-05T08:48:29.189Z,14.97
2022-10-05T08:49:34.215Z,15.02
2022-10-05T08:50:30.172Z,15.14
2022-10-05T08:51:29.160Z,15.18
2022-10-05T08:52:29.253Z,15.14
2022-10-05T08:53:29.128Z,15.27
2022-10-05T08:54:29.115Z,15.22
2022-10-05T08:55:29.114Z,15.39
2022-10-05T08:56:29.211Z,15.27
2022-10-05T08:57:29.100Z,15.36
2022-10-05T08:58:29.122Z,15.37
2022-10-05T08:59:29.069Z,15.43
2022-10-05T09:00:29.057Z,15.43
2022-10-05T09:01:29.085Z,15.46
2022-10-05T09:02:29.113Z,15.48
2022-10-05T09:03:34.182Z,15.52
2022-10-05T09:04:30.056Z,15.57
2022-10-05T09:05:28.994Z,15.54
2022-10-05T09:06:28.986Z,15.55
2022-10-05T09:07:28.995Z,15.57
2022-10-05T09:08:28.956Z,15.64
2022-10-05T09:09:28.950Z,15.62
2022-10-05T09:10:28.927Z,15.62
2022-10-05T09:11:28.922Z,15.62
2022-10-05T09:12:28.912Z,15.65
2022-10-05T09:13:28.920Z,15.75
2022-10-05T09:14:28.910Z,15.73
2022-10-05T09:15:28.892Z,15.73
2022-10-05T09:16:28.882Z,15.77
2022-10-05T09:17:28.866Z,15.79
2022-10-05T09:18:28.903Z,15.72
2022-10-05T09:19:28.834Z,15.82
2022-10-05T09:20:28.844Z,15.83
2022-10-05T09:21:28.814Z,15.83
2022-10-05T09:22:28.819Z,15.88
2022-10-05T09:23:28.800Z,15.92
2022-10-05T09:24:28.841Z,15.91
2022-10-05T09:25:28.773Z,15.83
2022-10-05T09:26:28.755Z,16.05
2022-10-05T09:27:28.747Z,15.98
2022-10-05T09:28:28.829Z,15.97
2022-10-05T09:29:28.731Z,16.02
2022-10-05T09:30:28.751Z,15.97
2022-10-05T09:31:28.731Z,16.00
2022-10-05T09:32:28.692Z,16.05
2022-10-05T09:33:28.679Z,15.97
2022-10-05T09:34:28.701Z,16.00
2022-10-05T09:35:28.677Z,16.02
2022-10-05T09:36:28.646Z,16.05
2022-10-05T09:37:28.656Z,16.05
2022-10-05T09:38:28.623Z,16.06
2022-10-05T09:39:28.610Z,16.10
2022-10-05T09:40:28.604Z,16.01
2022-10-05T09:41:28.613Z,16.02
2022-10-05T09:42:28.610Z,16.09
2022-10-05T09:43:28.588Z,16.05
2022-10-05T09:44:28.588Z,16.13
2022-10-05T09:45:28.544Z,16.12
2022-10-05T09:46:28.610Z,16.16
2022-10-05T09:47:28.530Z,16.20
2022-10-05T09:48:28.518Z,16.17
2022-10-05T09:49:28.504Z,16.25
2022-10-05T09:50:28.487Z,16.28
2022-10-05T09:51:28.496Z,16.26
2022-10-05T09:52:28.464Z,16.31
2022-10-05T09:53:28.472Z,16.31
2022-10-05T09:54:28.449Z,16.39
2022-10-05T09:55:28.436Z,16.38
2022-10-05T09:57:28.408Z,16.54
2022-10-05T09:58:28.429Z,16.49
2022-10-05T09:59:28.388Z,16.46
2022-10-05T10:00:28.375Z,16.56
2022-10-05T10:01:34.055Z,16.56
2022-10-05T10:02:29.479Z,16.56
2022-10-05T10:03:28.441Z,16.54
2022-10-05T10:04:28.329Z,16.64
2022-10-05T10:05:28.320Z,16.56
2022-10-05T10:06:28.322Z,16.57
2022-10-05T10:07:28.298Z,16.57
2022-10-05T10:08:28.281Z,16.59
2022-10-05T10:09:28.275Z,16.62
2022-10-05T10:10:28.265Z,16.65
2022-10-05T10:11:28.268Z,16.66
2022-10-05T10:12:28.241Z,16.68
2022-10-05T10:13:28.220Z,16.71
2022-10-05T10:14:28.219Z,16.79
2022-10-05T10:15:28.213Z,16.86
2022-10-05T10:16:28.204Z,16.83
2022-10-05T10:17:28.184Z,17.04
2022-10-05T10:18:28.189Z,17.05
2022-10-05T10:19:28.155Z,17.05
2022-10-05T10:20:28.151Z,17.14
2022-10-05T10:21:28.150Z,17.16
2022-10-05T10:22:28.132Z,17.20
2022-10-05T10:23:28.118Z,17.20
2022-10-05T10:24:28.118Z,17.33
2022-10-05T10:25:28.087Z,17.41
2022-10-05T10:26:28.090Z,17.48
2022-10-05T10:27:28.071Z,17.63
2022-10-05T10:28:28.129Z,17.71
2022-10-05T10:29:28.050Z,17.97
2022-10-05T10:30:28.437Z,18.16
2022-10-05T10:31:28.093Z,18.28
2022-10-05T10:32:28.013Z,18.43
2022-10-05T10:33:27.997Z,18.63
2022-10-05T10:34:28.028Z,18.88
2022-10-05T10:36:27.983Z,19.24
2022-10-05T10:37:27.955Z,19.46
2022-10-05T10:38:27.946Z,19.86
2022-10-05T10:39:27.939Z,20.09
2022-10-05T10:40:27.934Z,20.26
2022-10-05T10:41:27.924Z,20.29
2022-10-05T10:42:27.906Z,20.26
2022-10-05T10:43:27.896Z,20.03
2022-10-05T10:44:27.879Z,19.99
2022-10-05T10:45:27.887Z,19.74
2022-10-05T10:46:27.910Z,19.63
2022-10-05T10:47:27.845Z,19.52
2022-10-05T10:48:27.833Z,19.34
2022-10-05T10:49:27.829Z,19.18
2022-10-05T10:50:27.832Z,19.07
2022-10-05T10:51:27.817Z,19.00
2022-10-05T10:52:27.799Z,18.90
2022-10-05T10:53:27.786Z,18.83
2022-10-05T10:54:27.770Z,18.73
2022-10-05T10:55:27.758Z,18.68
2022-10-05T10:56:27.773Z,18.78
2022-10-05T10:57:27.740Z,18.74
2022-10-05T10:58:27.801Z,18.73
2022-10-05T10:59:30.739Z,18.75
2022-10-05T11:00:27.701Z,18.70
2022-10-05T11:01:27.737Z,18.70
2022-10-05T11:02:27.732Z,18.68
2022-10-05T11:03:27.679Z,18.62
2022-10-05T11:04:27.659Z,18.71
2022-10-05T11:05:27.652Z,18.62
2022-10-05T11:06:27.800Z,18.60
2022-10-05T11:07:27.631Z,18.50
2022-10-05T11:08:27.640Z,18.55
2022-10-05T11:09:27.608Z,18.44
2022-10-05T11:10:27.591Z,18.38
2022-10-05T11:11:27.596Z,18.37
2022-10-05T11:12:30.949Z,18.40
2022-10-05T11:13:28.563Z,18.38
2022-10-05T11:14:27.554Z,18.50
2022-10-05T11:15:27.539Z,18.50
2022-10-05T11:16:27.540Z,18.68
2022-10-05T11:17:27.516Z,18.78
2022-10-05T11:18:27.517Z,18.70
2022-10-05T11:19:35.253Z,18.80
2022-10-05T11:20:28.482Z,18.95
2022-10-05T11:21:27.492Z,18.89
2022-10-05T11:22:27.492Z,19.07
2022-10-05T11:23:27.448Z,19.15
2022-10-05T11:24:27.442Z,19.23
2022-10-05T11:25:27.423Z,19.39
2022-10-05T11:26:27.509Z,19.42
2022-10-05T11:27:27.407Z,19.59
2022-10-05T11:28:27.559Z,19.62
2022-10-05T11:29:27.384Z,19.67
2022-10-05T11:30:27.375Z,19.59
2022-10-05T11:31:27.392Z,19.78
2022-10-05T11:32:27.351Z,19.81
2022-10-05T11:33:27.333Z,19.76
2022-10-05T11:34:27.330Z,19.88
2022-10-05T11:35:27.315Z,20.01
2022-10-05T11:36:27.328Z,20.07
2022-10-05T11:37:27.298Z,20.06
2022-10-05T11:38:27.303Z,20.11
2022-10-05T11:39:27.271Z,20.18
2022-10-05T11:40:27.253Z,20.21
2022-10-05T11:41:27.246Z,20.19
2022-10-05T11:42:27.257Z,20.29
2022-10-05T11:43:27.221Z,20.41
2022-10-05T11:44:27.234Z,20.43
2022-10-05T11:45:27.199Z,20.44
2022-10-05T11:46:27.244Z,20.44
2022-10-05T11:47:27.185Z,20.47
2022-10-05T11:48:27.173Z,20.44
2022-10-05T11:49:27.158Z,20.31
2022-10-05T11:50:27.147Z,20.31
2022-10-05T11:51:28.841Z,20.22
2022-10-05T11:52:27.135Z,20.21
2022-10-05T11:53:27.134Z,20.25
2022-10-05T11:54:27.120Z,20.11
2022-10-05T11:55:27.093Z,20.19
2022-10-05T11:56:27.142Z,20.11
2022-10-05T11:57:27.065Z,20.10
2022-10-05T11:58:27.074Z,20.14
2022-10-05T11:59:27.049Z,20.03
2022-10-05T12:00:27.030Z,20.10
2022-10-05T12:01:27.021Z,20.04
2022-10-05T12:02:27.021Z,19.97
2022-10-05T12:03:27.209Z,19.96
2022-10-05T12:04:27.000Z,19.84
2022-10-05T12:05:26.981Z,19.82
2022-10-05T12:06:26.967Z,19.88
2022-10-05T12:07:26.957Z,19.74
2022-10-05T12:08:26.969Z,19.73
2022-10-05T12:09:26.934Z,19.78
2022-10-05T12:10:26.941Z,19.71
2022-10-05T12:11:26.913Z,19.70
2022-10-05T12:12:26.902Z,19.63
2022-10-05T12:13:26.891Z,19.60
2022-10-05T12:14:26.893Z,19.62
2022-10-05T12:15:26.873Z,19.62
2022-10-05T12:16:26.876Z,19.64
2022-10-05T12:17:26.845Z,19.63
2022-10-05T12:18:26.854Z,19.64
2022-10-05T12:19:26.844Z,19.64
2022-10-05T12:20:26.820Z,19.70
2022-10-05T12:21:26.799Z,19.81
2022-10-05T12:22:26.789Z,19.73
2022-10-05T12:23:26.806Z,19.82
2022-10-05T12:24:27.112Z,19.91
2022-10-05T12:25:26.759Z,19.92
2022-10-05T12:26:26.813Z,20.06
2022-10-05T12:27:26.822Z,20.04
2022-10-05T12:28:26.787Z,20.00
2022-10-05T12:29:26.730Z,20.00
2022-10-05T12:30:26.697Z,20.01
2022-10-05T12:31:26.757Z,20.10
2022-10-05T12:32:26.719Z,19.99
2022-10-05T12:33:26.683Z,20.18
2022-10-05T12:34:26.652Z,20.11
2022-10-05T12:35:43.883Z,20.18
2022-10-05T12:36:35.979Z,20.10
2022-10-05T12:37:27.624Z,20.18
2022-10-05T12:38:26.613Z,20.07
2022-10-05T12:39:26.620Z,20.10
2022-10-05T12:40:26.594Z,20.18
2022-10-05T12:41:26.578Z,20.22
2022-10-05T12:42:26.589Z,20.25
2022-10-05T12:43:26.573Z,20.24
2022-10-05T12:44:26.550Z,20.21
2022-10-05T12:45:26.560Z,20.26
2022-10-05T12:46:26.527Z,20.28
2022-10-05T12:47:26.513Z,20.34
2022-10-05T12:48:26.512Z,20.28
2022-10-05T12:49:26.496Z,20.33
2022-10-05T12:50:26.494Z,20.31
2022-10-05T12:51:26.483Z,20.29
2022-10-05T12:52:26.459Z,20.31
2022-10-05T12:53:26.461Z,20.28
2022-10-05T12:54:26.438Z,20.26